createdAt,value
2017-10-28T14:26:01.759Z,4.07
2017-10-28T14:28:29.238Z,3.70
2017-10-28T14:30:56.822Z,3.92
2017-10-28T14:33:24.296Z,5.05
2017-10-28T14:35:51.877Z,3.78
2017-10-28T14:38:19.354Z,3.62
2017-10-28T14:40:46.793Z,3.58
2017-10-28T14:43:14.276Z,3.72
2017-10-28T14:45:41.731Z,3.65
2017-10-28T14:48:09.244Z,4.05
2017-10-28T14:50:36.696Z,3.78
2017-10-28T14:53:04.183Z,3.42
2017-10-28T14:55:31.662Z,3.62
2017-10-28T14:57:59.121Z,3.17
2017-10-28T15:00:26.623Z,3.20
2017-10-28T15:02:54.135Z,3.50
2017-10-28T15:05:21.607Z,3.33
2017-10-28T15:07:49.093Z,3.40
2017-10-28T15:10:17.519Z,3.15
2017-10-28T15:12:45.249Z,3.28
2017-10-28T15:15:12.684Z,3.60
2017-10-28T15:17:40.807Z,3.00
2017-10-28T15:20:08.272Z,3.30
2017-10-28T15:22:35.747Z,2.85
2017-10-28T15:25:03.215Z,3.00
2017-10-28T15:27:30.671Z,3.08
2017-10-28T15:29:58.157Z,3.37
2017-10-28T15:32:25.636Z,2.95
2017-10-28T15:34:53.091Z,3.78
2017-10-28T15:37:20.548Z,3.90
2017-10-28T15:39:48.904Z,3.15
2017-10-28T15:42:16.449Z,3.53
2017-10-28T15:44:43.898Z,2.97
2017-10-28T15:47:11.371Z,3.08
2017-10-28T15:49:38.905Z,3.10
2017-10-28T15:52:06.378Z,3.20
2017-10-28T15:54:33.898Z,3.30
2017-10-28T15:57:01.399Z,3.63
2017-10-28T15:59:28.853Z,2.78
2017-10-28T16:01:57.052Z,3.15
2017-10-28T16:04:25.390Z,2.67
2017-10-28T16:06:52.888Z,2.78
2017-10-28T16:09:20.365Z,3.53
2017-10-28T16:11:47.832Z,2.78
2017-10-28T16:14:15.334Z,2.87
2017-10-28T16:16:42.797Z,2.72
2017-10-28T16:19:10.527Z,2.90
2017-10-28T16:21:38.019Z,2.97
2017-10-28T16:24:05.470Z,2.80
2017-10-28T16:26:33.034Z,3.30
2017-10-28T16:29:00.498Z,4.53
2017-10-28T16:31:28.054Z,3.90
2017-10-28T16:33:55.560Z,4.30
2017-10-28T16:36:23.360Z,5.30
2017-10-28T16:38:50.834Z,5.18
2017-10-28T16:41:18.310Z,4.62
2017-10-28T16:43:45.819Z,4.95
2017-10-28T16:46:13.266Z,4.57
2017-10-28T16:48:40.793Z,5.90
2017-10-28T16:51:08.253Z,5.68
2017-10-28T16:53:35.705Z,5.22
2017-10-28T16:56:03.219Z,5.07
2017-10-28T16:58:30.679Z,4.50
2017-10-28T17:00:58.152Z,4.60
2017-10-28T17:03:25.636Z,5.57
2017-10-28T17:05:53.116Z,4.95
2017-10-28T17:08:20.566Z,4.62
2017-10-28T17:10:48.027Z,4.25
2017-10-28T17:13:15.570Z,4.87
2017-10-28T17:15:43.102Z,4.93
2017-10-28T17:18:10.588Z,4.55
2017-10-28T17:20:38.087Z,4.78
2017-10-28T17:23:05.564Z,5.20
2017-10-28T17:25:33.045Z,4.45
2017-10-28T17:28:00.559Z,4.47
2017-10-28T17:30:28.040Z,4.25
2017-10-28T17:32:55.488Z,4.53
2017-10-28T17:35:22.973Z,5.25
2017-10-28T17:37:50.437Z,4.00
2017-10-28T17:40:17.889Z,5.00
2017-10-28T17:42:45.353Z,4.15
2017-10-28T17:45:12.812Z,4.65
2017-10-28T17:47:40.279Z,4.50
2017-10-28T17:50:07.734Z,3.80
2017-10-28T17:52:35.202Z,4.22
2017-10-28T17:55:02.677Z,3.78
2017-10-28T17:57:30.133Z,3.53
2017-10-28T17:59:57.603Z,3.87
2017-10-28T18:02:25.063Z,4.00
2017-10-28T18:04:52.598Z,3.58
2017-10-28T18:07:20.064Z,3.58
2017-10-28T18:09:47.571Z,3.97
2017-10-28T18:12:15.051Z,3.35
2017-10-28T18:14:42.543Z,3.40
2017-10-28T18:17:09.993Z,3.67
2017-10-28T18:19:37.453Z,3.25
2017-10-28T18:22:04.941Z,3.65
2017-10-28T18:24:32.393Z,3.08
2017-10-28T18:26:59.851Z,3.15
2017-10-28T18:29:27.335Z,3.25
2017-10-28T18:31:54.776Z,3.03
2017-10-28T18:34:22.264Z,3.65
2017-10-28T18:36:49.719Z,3.10
2017-10-28T18:39:17.206Z,2.90
2017-10-28T18:41:44.687Z,3.30
2017-10-28T18:44:12.210Z,3.47
2017-10-28T18:46:39.667Z,3.00
2017-10-28T18:49:07.153Z,3.15
2017-10-28T18:51:34.583Z,2.97
2017-10-28T18:54:02.100Z,2.60
2017-10-28T18:56:29.538Z,3.00
2017-10-28T18:58:57.077Z,3.00
2017-10-28T19:01:24.576Z,2.78
2017-10-28T19:03:52.053Z,3.35
2017-10-28T19:06:19.538Z,3.00
2017-10-28T19:08:47.028Z,3.03
2017-10-28T19:11:14.520Z,2.95
2017-10-28T19:13:41.997Z,3.47
2017-10-28T19:16:09.552Z,3.05
2017-10-28T19:18:37.004Z,3.12
2017-10-28T19:21:04.460Z,3.00
2017-10-28T19:23:31.928Z,3.20
2017-10-28T19:25:59.431Z,2.95
2017-10-28T19:28:26.912Z,2.83
2017-10-28T19:30:54.340Z,3.00
2017-10-28T19:33:21.856Z,3.00
2017-10-28T19:35:49.349Z,2.87
2017-10-28T19:38:16.793Z,2.70
2017-10-28T19:40:44.305Z,2.62
2017-10-28T19:43:11.801Z,2.70
2017-10-28T19:45:39.251Z,3.00
2017-10-28T19:48:06.768Z,2.67
2017-10-28T19:50:34.234Z,2.70
2017-10-28T19:53:01.712Z,2.97
2017-10-28T19:55:29.214Z,2.85
2017-10-28T19:57:56.745Z,3.00
2017-10-28T20:00:24.179Z,2.87
2017-10-28T20:02:51.643Z,2.67
2017-10-28T20:05:19.127Z,2.55
2017-10-28T20:07:46.632Z,2.72
2017-10-28T20:10:14.071Z,2.37
2017-10-28T20:12:41.531Z,2.62
2017-10-28T20:15:08.980Z,2.53
2017-10-28T20:17:36.473Z,2.55
2017-10-28T20:20:03.936Z,2.87
2017-10-28T20:22:31.382Z,2.28
2017-10-28T20:24:58.854Z,2.90
2017-10-28T20:27:26.478Z,2.90
2017-10-28T20:29:53.919Z,2.67
2017-10-28T20:32:21.649Z,2.60
2017-10-28T20:34:49.094Z,2.35
2017-10-28T20:37:16.538Z,2.83
2017-10-28T20:39:44.006Z,2.80
2017-10-28T20:42:11.455Z,2.62
2017-10-28T20:44:39.100Z,2.97
2017-10-28T20:47:06.565Z,3.22
2017-10-28T20:49:34.035Z,2.70
2017-10-28T20:52:01.518Z,2.50
2017-10-28T20:54:28.975Z,2.35
2017-10-28T20:56:56.443Z,2.70
2017-10-28T20:59:23.898Z,2.60
2017-10-28T21:01:51.356Z,2.65
2017-10-28T21:04:18.830Z,2.65
2017-10-28T21:06:46.278Z,2.85
2017-10-28T21:09:13.728Z,2.30
2017-10-28T21:11:41.245Z,2.28
2017-10-28T21:14:08.712Z,2.17
2017-10-28T21:16:36.162Z,2.30
2017-10-28T21:19:03.645Z,3.03
2017-10-28T21:21:31.350Z,2.95
2017-10-28T21:23:58.814Z,2.50
2017-10-28T21:26:26.474Z,2.60
2017-10-28T21:28:53.976Z,2.95
2017-10-28T21:31:21.435Z,2.35
2017-10-28T21:33:48.883Z,2.60
2017-10-28T21:36:16.370Z,2.65
2017-10-28T21:38:43.820Z,2.20
2017-10-28T21:41:11.334Z,2.20
2017-10-28T21:43:38.820Z,2.22
2017-10-28T21:46:06.252Z,2.10
2017-10-28T21:48:33.732Z,2.00
2017-10-28T21:51:01.186Z,2.15
2017-10-28T21:53:28.663Z,2.22
2017-10-28T21:55:56.113Z,2.05
2017-10-28T21:58:23.546Z,1.83
2017-10-28T22:00:51.294Z,2.00
2017-10-28T22:03:18.744Z,2.17
2017-10-28T22:05:46.187Z,1.75
2017-10-28T22:08:13.643Z,1.77
2017-10-28T22:10:41.101Z,1.55
2017-10-28T22:13:08.591Z,1.58
2017-10-28T22:15:36.024Z,1.80
2017-10-28T22:18:03.478Z,1.52
2017-10-28T22:20:30.929Z,1.90
2017-10-28T22:22:58.437Z,1.70
2017-10-28T22:25:25.871Z,1.77
2017-10-28T22:27:53.328Z,1.83
2017-10-28T22:30:20.791Z,1.87
2017-10-28T22:32:48.237Z,1.55
2017-10-28T22:35:15.703Z,2.10
2017-10-28T22:37:43.157Z,1.90
2017-10-28T22:40:10.607Z,2.60
2017-10-28T22:42:38.107Z,2.30
2017-10-28T22:45:05.576Z,2.20
2017-10-28T22:47:33.136Z,2.00
2017-10-28T22:50:00.615Z,1.95
2017-10-28T22:52:28.349Z,1.90
2017-10-28T22:54:55.782Z,2.15
2017-10-28T22:57:23.238Z,2.30
2017-10-28T22:59:50.692Z,2.40
2017-10-28T23:02:18.165Z,2.10
2017-10-28T23:04:45.606Z,2.10
2017-10-28T23:07:13.051Z,2.08
2017-10-28T23:09:40.537Z,2.05
2017-10-28T23:12:07.988Z,2.08
2017-10-28T23:14:35.438Z,1.83
2017-10-28T23:17:03.031Z,1.90
2017-10-28T23:19:30.727Z,1.80
2017-10-28T23:21:58.174Z,1.97
2017-10-28T23:24:25.966Z,2.23
2017-10-28T23:26:53.431Z,1.70
2017-10-28T23:29:20.904Z,1.98
2017-10-28T23:31:48.354Z,2.03
2017-10-28T23:34:15.788Z,1.70
2017-10-28T23:36:43.216Z,1.53
2017-10-28T23:39:10.700Z,1.50
2017-10-28T23:41:38.156Z,1.83
2017-10-28T23:44:05.602Z,1.40
2017-10-28T23:46:33.175Z,1.65
2017-10-28T23:49:00.648Z,1.52
2017-10-28T23:51:28.103Z,1.10
2017-10-28T23:53:55.551Z,1.17
2017-10-28T23:56:23.020Z,1.33
2017-10-28T23:58:50.465Z,1.08
